Time;durP1;ratioP1;P1;durP2;ratioP2;P2;SDS_P1;SDS_P2;PMS_P1;PMS_P2;Temp;Humidity;BMP_temperature;BMP_pressure;BME280_temperature;BME280_humidity;BME280_pressure;Samples;Min_cycle;Max_cycle;Signal;HPM_P1;HPM_P2
2021/12/06 00:01:47;;;;;;;;;4.50;4.25;;;;;5.69;100.00;100234.50;5074986;27;45543;-63
2021/12/06 00:04:26;;;;;;;;;5.00;5.00;;;;;5.64;100.00;100237.25;5075008;27;45389;-66
2021/12/06 00:06:56;;;;;;;;;4.50;4.50;;;;;5.64;100.00;100249.44;5074958;27;45600;-67
2021/12/06 00:09:24;;;;;;;;;5.00;5.00;;;;;5.62;100.00;100251.22;5075390;27;47312;-63
2021/12/06 00:11:56;;;;;;;;;4.25;4.00;;;;;5.60;100.00;100247.78;5076729;27;45550;-67
2021/12/06 00:14:27;;;;;;;;;6.00;4.00;;;;;5.62;100.00;100252.09;5078620;27;45351;-67
2021/12/06 00:16:53;;;;;;;;;9.50;4.00;;;;;5.62;100.00;100249.47;5076634;27;45420;-70
2021/12/06 00:19:19;;;;;;;;;8.00;5.25;;;;;5.66;100.00;100251.13;5076152;27;45519;-64
2021/12/06 00:21:44;;;;;;;;;5.25;3.00;;;;;5.69;100.00;100258.88;5074258;27;45422;-67
2021/12/06 00:24:09;;;;;;;;;5.00;4.00;;;;;5.69;100.00;100253.66;5076996;27;45838;-66
2021/12/06 00:26:35;;;;;;;;;6.75;5.75;;;;;5.68;100.00;100257.16;5077383;27;45247;-63
2021/12/06 00:29:00;;;;;;;;;6.00;6.00;;;;;5.72;100.00;100257.06;5071150;27;45260;-66
2021/12/06 00:31:31;;;;;;;;;7.00;4.50;;;;;5.73;100.00;100256.19;5075873;27;45307;-63
2021/12/06 00:34:00;;;;;;;;;5.25;4.00;;;;;5.67;100.00;100242.38;5075464;27;45313;-58
2021/12/06 00:36:28;;;;;;;;;5.50;5.50;;;;;5.75;100.00;100257.00;5076244;27;45227;-67
2021/12/06 00:38:55;;;;;;;;;4.50;4.00;;;;;5.74;100.00;100261.34;5088703;27;47080;-69
2021/12/06 00:41:21;;;;;;;;;3.75;3.00;;;;;5.70;100.00;100254.50;5099804;27;45524;-64
2021/12/06 00:43:47;;;;;;;;;4.50;4.00;;;;;5.76;100.00;100269.16;5096928;27;45586;-65
2021/12/06 00:46:12;;;;;;;;;7.00;5.75;;;;;5.76;100.00;100280.44;5084258;27;45511;-65
2021/12/06 00:48:38;;;;;;;;;4.50;4.50;;;;;5.74;100.00;100281.38;5076703;27;46085;-65
2021/12/06 00:51:04;;;;;;;;;5.00;5.00;;;;;5.76;100.00;100284.81;5075903;27;45450;-64
2021/12/06 00:53:29;;;;;;;;;7.00;5.25;;;;;5.76;100.00;100290.88;5076906;27;45441;-62
2021/12/06 00:55:55;;;;;;;;;8.75;4.00;;;;;5.79;100.00;100295.16;5080931;27;45378;-63
2021/12/06 00:58:20;;;;;;;;;4.00;3.00;;;;;5.77;100.00;100295.19;5079478;28;47090;-66
2021/12/06 01:00:49;;;;;;;;;6.00;4.00;;;;;5.74;100.00;100303.09;5076064;27;45327;-67
2021/12/06 01:03:21;;;;;;;;;7.00;4.75;;;;;5.51;100.00;100261.94;5073910;27;45450;-68
2021/12/06 01:05:48;;;;;;;;;8.50;4.50;;;;;5.76;100.00;100303.09;5077630;27;45444;-69
2021/12/06 01:08:14;;;;;;;;;9.25;4.00;;;;;5.75;100.00;100303.97;5080571;27;45454;-68
2021/12/06 01:10:40;;;;;;;;;9.50;6.50;;;;;5.73;100.00;100295.31;5078066;28;45545;-67
2021/12/06 01:13:06;;;;;;;;;6.00;4.25;;;;;5.78;100.00;100314.34;5077848;27;45434;-65
2021/12/06 01:15:33;;;;;;;;;5.00;3.75;;;;;5.69;100.00;100295.41;5077927;27;45591;-68
2021/12/06 01:18:01;;;;;;;;;9.50;4.00;;;;;5.77;100.00;100310.84;5078217;27;45512;-58
2021/12/06 01:20:30;;;;;;;;;6.00;4.00;;;;;5.79;100.00;100316.06;5095390;27;45444;-66
2021/12/06 01:23:06;;;;;;;;;8.25;5.00;;;;;5.78;100.00;100320.41;5078327;27;45452;-68
2021/12/06 01:25:54;;;;;;;;;9.25;5.50;;;;;5.79;100.00;100316.06;5078287;27;45456;-64
2021/12/06 01:30:59;;;;;;;;;9.25;4.00;;;;;5.80;100.00;100326.44;5079690;27;45388;-67
2021/12/06 01:33:42;;;;;;;;;4.50;4.00;;;;;5.82;100.00;100326.41;5080126;27;45404;-67
2021/12/06 01:41:59;;;;;;;;;8.00;5.50;;;;;5.78;100.00;100335.22;5060990;27;45396;-66
2021/12/06 01:44:27;;;;;;;;;7.25;6.00;;;;;5.78;100.00;100340.44;5081669;27;45524;-67
2021/12/06 01:47:05;;;;;;;;;6.50;4.50;;;;;5.77;100.00;100338.72;5078799;28;45434;-66
2021/12/06 01:49:36;;;;;;;;;8.50;5.00;;;;;5.77;100.00;100346.56;5078177;27;46417;-64
2021/12/06 01:52:12;;;;;;;;;6.75;4.50;;;;;5.74;100.00;100357.06;5077906;27;45452;-65
2021/12/06 01:54:38;;;;;;;;;5.75;5.00;;;;;5.72;100.00;100354.47;5078904;27;45421;-67
2021/12/06 01:57:04;;;;;;;;;4.75;4.50;;;;;5.68;100.00;100355.44;5079300;27;45578;-67
2021/12/06 01:59:30;;;;;;;;;7.50;4.75;;;;;5.70;100.00;100370.19;5079347;27;45364;-67
2021/12/06 02:01:56;;;;;;;;;6.50;5.00;;;;;5.69;100.00;100370.22;5081236;28;45161;-68
2021/12/06 02:04:23;;;;;;;;;5.50;5.00;;;;;5.65;100.00;100374.66;5078677;28;45339;-66
2021/12/06 02:06:49;;;;;;;;;8.25;6.00;;;;;5.65;100.00;100376.41;5080563;27;45310;-68
2021/12/06 02:09:17;;;;;;;;;7.50;5.75;;;;;5.63;100.00;100372.97;5085679;27;45632;-65
2021/12/06 02:11:45;;;;;;;;;7.75;6.50;;;;;5.63;100.00;100381.66;5086458;27;45402;-68
2021/12/06 02:16:59;;;;;;;;;8.75;6.00;;;;;5.61;100.00;100393.91;5081364;27;45372;-68
2021/12/06 02:19:31;;;;;;;;;7.25;4.25;;;;;5.61;100.00;100398.25;5078936;27;46311;-68
2021/12/06 02:21:56;;;;;;;;;5.00;4.00;;;;;5.62;100.00;100398.22;5078159;27;45574;-68
2021/12/06 02:24:22;;;;;;;;;9.00;6.25;;;;;5.65;100.00;100399.88;5073341;27;45476;-65
2021/12/06 02:26:48;;;;;;;;;4.25;4.25;;;;;5.63;100.00;100393.84;5080936;27;45428;-63
2021/12/06 02:29:13;;;;;;;;;7.75;6.50;;;;;5.66;100.00;100396.38;5080173;27;45453;-64
2021/12/06 02:31:39;;;;;;;;;7.00;5.75;;;;;5.67;100.00;100401.59;5079759;28;45311;-65
2021/12/06 02:34:04;;;;;;;;;7.25;6.00;;;;;5.68;100.00;100397.19;5078129;27;45492;-67
2021/12/06 02:36:31;;;;;;;;;6.75;6.00;;;;;5.70;100.00;100401.50;5080232;27;45539;-64
2021/12/06 02:38:57;;;;;;;;;4.75;4.00;;;;;5.70;100.00;100398.91;5083196;27;45933;-67
2021/12/06 02:41:22;;;;;;;;;7.25;7.00;;;;;5.69;100.00;100398.91;5093671;27;45476;-65
2021/12/06 02:43:50;;;;;;;;;8.00;6.00;;;;;5.68;100.00;100403.31;5098287;27;45346;-68
2021/12/06 02:46:15;;;;;;;;;6.75;6.00;;;;;5.72;100.00;100405.84;5097919;27;45243;-66
2021/12/06 02:48:41;;;;;;;;;10.50;8.50;;;;;5.71;100.00;100407.56;5097076;27;45462;-67
2021/12/06 02:51:07;;;;;;;;;8.00;6.00;;;;;5.64;100.00;100390.34;5097597;27;45402;-66
2021/12/06 02:53:35;;;;;;;;;7.00;7.00;;;;;5.74;100.00;100404.06;5097602;27;45376;-66
2021/12/06 02:56:06;;;;;;;;;7.25;6.00;;;;;5.74;100.00;100406.66;5098351;27;45520;-64
2021/12/06 03:01:05;;;;;;;;;6.75;6.75;;;;;5.68;100.00;100381.53;5097059;27;45581;-65
2021/12/06 03:03:30;;;;;;;;;6.50;5.00;;;;;5.82;100.00;100405.56;5096118;27;45598;-64
2021/12/06 03:05:56;;;;;;;;;6.00;6.00;;;;;5.83;100.00;100411.66;5096415;27;45407;-68
2021/12/06 03:08:41;;;;;;;;;8.25;6.25;;;;;5.82;100.00;100405.56;5097478;27;45402;-66
2021/12/06 03:11:11;;;;;;;;;7.00;7.00;;;;;5.86;100.00;100408.97;5097631;27;45392;-66
2021/12/06 03:13:38;;;;;;;;;5.75;3.00;;;;;5.90;100.00;100422.84;5098093;27;45833;-67
2021/12/06 03:16:04;;;;;;;;;6.00;6.00;;;;;5.91;100.00;100425.41;5096787;27;45619;-67
2021/12/06 03:18:33;;;;;;;;;7.50;5.50;;;;;5.90;100.00;100428.91;5096410;27;47168;-68
2021/12/06 03:20:59;;;;;;;;;5.25;5.00;;;;;5.90;100.00;100436.72;5095797;27;45503;-66
2021/12/06 03:23:24;;;;;;;;;5.50;5.50;;;;;5.79;100.00;100415.25;5099072;27;45551;-65
2021/12/06 03:25:50;;;;;;;;;8.00;7.25;;;;;5.85;100.00;100435.97;5101713;27;45782;-65
2021/12/06 03:28:15;;;;;;;;;7.00;5.25;;;;;5.89;100.00;100439.41;5062110;28;46230;-66
2021/12/06 03:30:41;;;;;;;;;6.75;6.00;;;;;5.90;100.00;100444.56;5056314;28;45414;-64
2021/12/06 03:33:06;;;;;;;;;10.75;6.00;;;;;5.88;100.00;100442.91;5055863;28;45465;-64
2021/12/06 03:35:32;;;;;;;;;7.50;5.00;;;;;5.85;100.00;100442.06;5056018;28;45563;-64
2021/12/06 03:37:57;;;;;;;;;7.00;6.50;;;;;5.91;100.00;100450.66;5055909;28;45564;-63
2021/12/06 03:40:23;;;;;;;;;7.50;5.75;;;;;5.92;100.00;100445.38;5056528;28;45468;-63
2021/12/06 03:42:48;;;;;;;;;7.50;7.50;;;;;5.95;100.00;100441.88;5056340;28;45516;-66
2021/12/06 03:45:14;;;;;;;;;6.75;6.75;;;;;5.93;100.00;100433.22;5056070;28;45366;-62
2021/12/06 03:47:40;;;;;;;;;8.50;6.25;;;;;5.94;100.00;100433.16;5055993;28;47463;-64
2021/12/06 03:50:08;;;;;;;;;9.50;9.25;;;;;5.96;100.00;100433.97;5055551;28;45426;-58
2021/12/06 03:52:34;;;;;;;;;8.00;8.00;;;;;5.98;100.00;100433.97;5055330;28;45348;-63
2021/12/06 03:55:00;;;;;;;;;8.25;8.25;;;;;6.01;100.00;100441.75;5055209;28;45477;-64
2021/12/06 03:57:26;;;;;;;;;11.75;9.25;;;;;6.02;100.00;100450.44;5055349;28;46573;-63
2021/12/06 03:59:53;;;;;;;;;7.50;7.00;;;;;6.01;100.00;100454.81;5053966;28;45443;-64
2021/12/06 04:02:22;;;;;;;;;8.00;7.25;;;;;6.02;100.00;100447.81;5055686;28;45490;-65
2021/12/06 04:04:48;;;;;;;;;11.00;7.00;;;;;5.99;100.00;100440.91;5054943;28;45485;-65
2021/12/06 04:07:14;;;;;;;;;13.50;11.25;;;;;6.07;100.00;100459.00;5054614;28;46134;-64
2021/12/06 04:09:39;;;;;;;;;8.25;7.00;;;;;6.02;100.00;100461.75;5054381;28;45451;-63
2021/12/06 04:12:07;;;;;;;;;11.25;8.75;;;;;6.05;100.00;100479.94;5055014;28;45414;-65
2021/12/06 04:14:33;;;;;;;;;10.75;8.00;;;;;6.05;100.00;100477.34;5057437;28;45397;-65
2021/12/06 04:16:58;;;;;;;;;9.50;8.00;;;;;6.04;100.00;100487.81;5055075;28;46802;-64
2021/12/06 04:19:24;;;;;;;;;10.25;7.75;;;;;6.08;100.00;100494.69;5060185;28;45378;-64
2021/12/06 04:21:50;;;;;;;;;8.50;7.00;;;;;6.10;100.00;100505.94;5061099;28;45296;-63
2021/12/06 04:24:16;;;;;;;;;10.50;8.00;;;;;6.12;100.00;100498.94;5056517;28;45503;-61
2021/12/06 04:26:42;;;;;;;;;10.75;7.00;;;;;6.17;100.00;100502.28;5054293;28;45220;-65
2021/12/06 04:29:08;;;;;;;;;9.25;7.75;;;;;6.18;100.00;100508.41;5056152;28;45362;-61
2021/12/06 04:31:41;;;;;;;;;12.50;9.00;;;;;6.20;100.00;100499.63;5056033;28;45312;-65
2021/12/06 04:34:07;;;;;;;;;8.25;8.00;;;;;6.20;100.00;100506.59;5056370;28;45412;-62
2021/12/06 04:36:32;;;;;;;;;9.00;8.75;;;;;6.14;100.00;100491.91;5056107;28;46354;-66
2021/12/06 04:38:58;;;;;;;;;10.50;8.75;;;;;6.22;100.00;100503.03;5057268;28;45352;-65
2021/12/06 04:41:24;;;;;;;;;11.50;9.00;;;;;6.19;100.00;100499.66;5061718;28;45346;-65
2021/12/06 04:43:50;;;;;;;;;8.00;8.00;;;;;6.20;100.00;100504.84;5062641;28;45287;-65
2021/12/06 04:46:16;;;;;;;;;10.25;9.50;;;;;6.23;100.00;100509.16;5059772;28;45486;-64
2021/12/06 04:48:42;;;;;;;;;12.00;9.25;;;;;6.24;100.00;100529.16;5059446;28;45369;-63
2021/12/06 04:51:08;;;;;;;;;11.75;10.50;;;;;6.25;100.00;100526.50;5059778;28;45391;-65
2021/12/06 04:53:36;;;;;;;;;10.50;8.50;;;;;6.26;100.00;100530.81;5060451;28;45635;-64
2021/12/06 04:56:25;;;;;;;;;15.75;10.50;;;;;6.25;100.00;100529.09;5059148;28;45317;-65
2021/12/06 04:59:07;;;;;;;;;12.50;8.00;;;;;6.26;100.00;100541.25;5059505;28;45375;-66
2021/12/06 05:01:34;;;;;;;;;11.00;9.00;;;;;6.22;100.00;100526.56;5059247;28;45244;-65
2021/12/06 05:04:05;;;;;;;;;13.50;12.25;;;;;6.18;100.00;100537.97;5060097;28;45508;-65
2021/12/06 05:06:33;;;;;;;;;13.75;13.75;;;;;6.08;100.00;100544.28;5061217;28;45287;-66
2021/12/06 05:09:08;;;;;;;;;15.50;11.75;;;;;6.01;100.00;100543.59;5060809;28;45158;-65
2021/12/06 05:11:33;;;;;;;;;10.50;10.00;;;;;5.94;100.00;100541.97;5057179;28;45393;-65
2021/12/06 05:14:01;;;;;;;;;17.25;14.00;;;;;5.85;100.00;100554.34;5058794;28;45369;-62
2021/12/06 05:16:27;;;;;;;;;17.00;13.00;;;;;5.72;100.00;100552.84;5058643;28;47034;-61
2021/12/06 05:18:53;;;;;;;;;13.25;9.75;;;;;5.68;100.00;100559.88;5059007;28;45481;-61
2021/12/06 05:21:18;;;;;;;;;12.75;12.75;;;;;5.61;100.00;100547.84;5064039;28;45789;-62
2021/12/06 05:23:44;;;;;;;;;15.00;14.75;;;;;5.63;100.00;100556.50;5089534;27;45260;-65
2021/12/06 05:26:09;;;;;;;;;22.25;17.25;;;;;5.56;100.00;100549.69;5091292;27;45312;-64
2021/12/06 05:28:41;;;;;;;;;19.25;16.00;;;;;5.61;100.00;100566.13;5077917;28;45364;-63
2021/12/06 05:31:14;;;;;;;;;20.75;18.50;;;;;5.58;100.00;100566.19;5080008;27;45443;-64
2021/12/06 05:33:46;;;;;;;;;17.75;16.00;;;;;5.62;100.00;100567.84;5080450;27;45519;-63
2021/12/06 05:36:13;;;;;;;;;22.00;17.25;;;;;5.61;100.00;100573.94;5079411;27;47081;-63
2021/12/06 05:38:38;;;;;;;;;21.25;15.00;;;;;5.58;100.00;100583.56;5078854;27;45327;-64
2021/12/06 05:41:05;;;;;;;;;16.75;14.25;;;;;5.52;100.00;100581.97;5077882;27;45453;-65
2021/12/06 05:43:30;;;;;;;;;18.75;18.00;;;;;5.27;100.00;100540.66;5077949;27;45578;-64
2021/12/06 05:45:56;;;;;;;;;18.25;18.25;;;;;5.55;100.00;100581.91;5083534;28;46000;-63
2021/12/06 05:48:22;;;;;;;;;19.75;19.75;;;;;5.57;100.00;100580.13;5089427;27;45473;-65
2021/12/06 05:50:49;;;;;;;;;15.75;15.50;;;;;5.58;100.00;100579.22;5076949;27;45387;-64
2021/12/06 05:53:15;;;;;;;;;21.75;17.25;;;;;5.57;100.00;100580.13;5076647;27;45792;-62
2021/12/06 05:55:41;;;;;;;;;24.00;18.25;;;;;5.59;100.00;100587.91;5091479;27;47240;-64
2021/12/06 05:58:10;;;;;;;;;19.00;18.00;;;;;5.41;100.00;100553.44;5077191;28;45335;-62
2021/12/06 06:00:37;;;;;;;;;20.75;16.50;;;;;5.59;100.00;100587.91;5077488;27;46059;-63
2021/12/06 06:03:05;;;;;;;;;18.00;17.00;;;;;5.62;100.00;100596.53;5076244;27;45525;-64
2021/12/06 06:05:34;;;;;;;;;19.00;16.50;;;;;5.62;100.00;100593.06;5075969;27;46090;-62
2021/12/06 06:08:00;;;;;;;;;18.50;14.50;;;;;5.61;100.00;100592.22;5076481;27;45548;-64
2021/12/06 06:10:26;;;;;;;;;20.00;17.00;;;;;5.58;100.00;100584.44;5078852;27;45496;-65
2021/12/06 06:12:51;;;;;;;;;19.75;18.25;;;;;5.63;100.00;100594.78;5078322;27;45650;-64
2021/12/06 06:15:17;;;;;;;;;19.25;17.25;;;;;5.63;100.00;100590.44;5077992;27;45490;-62
2021/12/06 06:17:44;;;;;;;;;18.25;16.00;;;;;5.62;100.00;100606.09;5076146;27;45527;-61
2021/12/06 06:20:27;;;;;;;;;19.00;15.25;;;;;5.62;100.00;100603.50;5076691;27;45494;-63
2021/12/06 06:22:53;;;;;;;;;15.50;15.50;;;;;5.55;100.00;100589.72;5076631;27;45738;-63
2021/12/06 06:25:19;;;;;;;;;19.25;13.00;;;;;5.65;100.00;100616.50;5078782;27;46207;-63
2021/12/06 06:27:45;;;;;;;;;18.75;13.25;;;;;5.58;100.00;100610.53;5077637;27;45389;-62
2021/12/06 06:30:11;;;;;;;;;15.75;13.75;;;;;5.64;100.00;100623.47;5078162;27;45233;-62
2021/12/06 06:32:37;;;;;;;;;16.00;15.00;;;;;5.62;100.00;100622.66;5078367;28;45345;-63
2021/12/06 06:35:03;;;;;;;;;14.50;12.75;;;;;5.59;100.00;100622.69;5077637;27;46037;-64
2021/12/06 06:37:29;;;;;;;;;15.75;11.75;;;;;5.59;100.00;100621.81;5077797;27;45315;-64
2021/12/06 06:39:55;;;;;;;;;19.25;14.75;;;;;5.59;100.00;100627.03;5078055;27;45493;-64
2021/12/06 06:42:23;;;;;;;;;21.00;14.00;;;;;5.58;100.00;100626.19;5076419;28;45522;-62
2021/12/06 06:44:50;;;;;;;;;20.75;16.00;;;;;5.52;100.00;100611.50;5077384;27;45312;-64
2021/12/06 06:47:15;;;;;;;;;18.75;13.50;;;;;5.64;100.00;100630.44;5077371;27;45380;-63
2021/12/06 06:49:41;;;;;;;;;21.50;15.25;;;;;5.56;100.00;100610.56;5079619;27;45345;-65
2021/12/06 06:52:06;;;;;;;;;21.75;19.00;;;;;5.68;100.00;100624.25;5078194;27;45211;-65
2021/12/06 06:54:32;;;;;;;;;16.75;15.00;;;;;5.70;100.00;100625.09;5077144;28;45776;-63
2021/12/06 06:56:57;;;;;;;;;16.00;13.25;;;;;5.72;100.00;100628.53;5077141;27;45267;-65
2021/12/06 06:59:23;;;;;;;;;15.25;13.50;;;;;5.68;100.00;100627.75;5077698;27;45483;-65
2021/12/06 07:01:48;;;;;;;;;17.25;12.00;;;;;5.69;100.00;100636.41;5077623;27;45165;-66
2021/12/06 07:04:14;;;;;;;;;16.75;16.00;;;;;5.68;100.00;100646.00;5077790;27;47184;-62
2021/12/06 07:06:39;;;;;;;;;14.00;12.75;;;;;5.66;100.00;100645.19;5077458;27;45620;-63
2021/12/06 07:09:06;;;;;;;;;13.00;9.50;;;;;5.58;100.00;100646.19;5077369;27;45877;-63
2021/12/06 07:11:32;;;;;;;;;16.00;15.00;;;;;5.63;100.00;100655.69;5077738;28;45426;-65
2021/12/06 07:13:58;;;;;;;;;12.00;11.50;;;;;5.60;100.00;100658.34;5077250;27;45428;-64
2021/12/06 07:16:23;;;;;;;;;16.25;13.00;;;;;5.31;100.00;100627.56;5078109;27;45331;-64
2021/12/06 07:18:49;;;;;;;;;14.00;12.00;;;;;5.62;100.00;100673.97;5078584;27;45400;-62
2021/12/06 07:21:15;;;;;;;;;16.25;15.50;;;;;5.58;100.00;100672.28;5077893;27;45247;-66
2021/12/06 07:23:42;;;;;;;;;15.75;12.25;;;;;5.59;100.00;100676.63;5076965;28;46030;-64
2021/12/06 07:26:09;;;;;;;;;18.00;14.75;;;;;5.55;100.00;100676.69;5077091;27;45351;-64
2021/12/06 07:28:36;;;;;;;;;14.25;13.50;;;;;5.54;100.00;100674.13;5077234;27;45458;-62
2021/12/06 07:31:05;;;;;;;;;14.00;11.75;;;;;5.46;100.00;100679.44;5076535;27;45302;-63
2021/12/06 07:33:31;;;;;;;;;17.50;15.50;;;;;5.35;100.00;100676.16;5076663;27;45460;-64
2021/12/06 07:35:56;;;;;;;;;21.00;16.25;;;;;5.33;100.00;100686.66;5092325;27;45536;-63
2021/12/06 07:38:22;;;;;;;;;19.25;14.00;;;;;5.28;100.00;100693.66;5076715;27;45467;-64
2021/12/06 07:40:50;;;;;;;;;15.75;14.25;;;;;5.25;100.00;100685.88;5077281;27;45172;-62
2021/12/06 07:43:17;;;;;;;;;18.75;15.25;;;;;5.21;100.00;100669.44;5077167;27;47040;-65
2021/12/06 07:45:42;;;;;;;;;22.00;17.75;;;;;5.23;100.00;100670.28;5077904;27;45354;-64
2021/12/06 07:48:07;;;;;;;;;23.00;16.25;;;;;5.21;100.00;100671.16;5076945;27;45698;-62
2021/12/06 07:50:33;;;;;;;;;23.00;18.50;;;;;5.22;100.00;100668.56;5076689;27;45352;-64
2021/12/06 07:52:58;;;;;;;;;19.50;19.50;;;;;5.24;100.00;100674.59;5076269;27;46676;-65
2021/12/06 07:55:31;;;;;;;;;22.50;18.75;;;;;5.25;100.00;100681.53;5076763;27;45298;-65
2021/12/06 07:57:58;;;;;;;;;21.00;19.75;;;;;5.30;100.00;100689.31;5076959;27;45481;-64
2021/12/06 08:00:26;;;;;;;;;17.50;14.00;;;;;5.40;100.00;100690.00;5077199;27;45469;-66
2021/12/06 08:02:52;;;;;;;;;25.75;16.25;;;;;5.48;100.00;100688.13;5092776;27;47276;-62
2021/12/06 08:05:31;;;;;;;;;25.75;20.00;;;;;5.55;100.00;100675.84;5078973;27;45814;-59
2021/12/06 08:08:01;;;;;;;;;28.50;19.00;;;;;5.67;100.00;100675.63;5096726;27;45422;-62
2021/12/06 08:10:27;;;;;;;;;27.50;22.75;;;;;5.83;100.00;100683.16;5080895;27;45454;-62
2021/12/06 08:12:52;;;;;;;;;24.25;23.50;;;;;5.92;100.00;100676.91;5076829;27;46088;-69
2021/12/06 08:15:18;;;;;;;;;30.25;23.75;;;;;5.98;100.00;100663.72;5078718;28;45213;-62
2021/12/06 08:17:43;;;;;;;;;29.75;21.75;;;;;6.11;100.00;100664.38;5081373;27;45225;-61
2021/12/06 08:20:10;;;;;;;;;22.75;21.00;;;;;6.20;100.00;100666.78;5079922;27;45252;-63
2021/12/06 08:22:36;;;;;;;;;30.75;25.25;;;;;6.23;100.00;100671.09;5075302;27;46876;-66
2021/12/06 08:25:03;;;;;;;;;22.75;21.25;;;;;6.26;100.00;100677.09;5076190;27;45300;-63
2021/12/06 08:27:29;;;;;;;;;26.75;24.50;;;;;6.33;100.00;100671.75;5076857;27;45447;-60
2021/12/06 08:29:55;;;;;;;;;35.75;28.00;;;;;6.37;100.00;100663.00;5094024;27;45292;-60
2021/12/06 08:32:20;;;;;;;;;31.50;24.50;;;;;6.46;100.00;100665.41;5097044;27;45348;-63
2021/12/06 08:34:46;;;;;;;;;30.50;23.75;;;;;6.63;100.00;100656.31;5098586;27;45255;-61
2021/12/06 08:37:13;;;;;;;;;30.00;21.50;;;;;6.71;100.00;100651.78;5079591;27;45441;-60
2021/12/06 08:39:38;;;;;;;;;26.25;21.25;;;;;6.79;100.00;100662.91;5076599;28;45562;-63
2021/12/06 08:42:05;;;;;;;;;28.00;18.25;;;;;6.85;100.00;100668.00;5076075;27;46028;-62
2021/12/06 08:44:31;;;;;;;;;20.50;17.50;;;;;6.98;100.00;100670.31;5076130;27;45338;-60
2021/12/06 08:46:56;;;;;;;;;21.75;17.00;;;;;7.02;100.00;100653.66;5076362;27;45329;-58
2021/12/06 08:49:22;;;;;;;;;24.25;22.25;;;;;7.19;100.00;100657.63;5075916;27;45375;-65
2021/12/06 08:51:50;;;;;;;;;21.00;18.75;;;;;7.26;100.00;100657.44;5074478;27;45987;-61
2021/12/06 08:54:22;;;;;;;;;31.25;25.75;;;;;7.36;100.00;100670.28;5073620;27;45442;-61
2021/12/06 08:56:48;;;;;;;;;42.50;33.75;;;;;7.45;100.00;100652.59;5070363;28;45555;-63
2021/12/06 08:59:14;;;;;;;;;24.75;19.50;;;;;7.52;100.00;100642.81;5074459;27;45879;-62
2021/12/06 09:01:40;;;;;;;;;28.25;20.00;;;;;7.64;100.00;100646.00;5073973;27;45520;-62
2021/12/06 09:04:11;;;;;;;;;20.50;17.50;;;;;7.68;100.00;100645.03;5074440;27;45515;-63
2021/12/06 09:06:39;;;;;;;;;24.00;19.25;;;;;7.75;100.00;100646.56;5076010;27;45706;-62
2021/12/06 09:09:07;;;;;;;;;22.00;19.00;;;;;7.81;100.00;100645.56;5075064;27;45695;-65
2021/12/06 09:11:34;;;;;;;;;23.50;21.00;;;;;7.83;100.00;100654.22;5075335;27;46219;-63
2021/12/06 09:14:00;;;;;;;;;31.00;24.75;;;;;7.89;100.00;100656.66;5075417;27;45306;-62
2021/12/06 09:16:26;;;;;;;;;25.25;22.75;;;;;7.87;100.00;100646.22;5075725;27;45372;-65
2021/12/06 09:18:53;;;;;;;;;27.75;25.00;;;;;7.99;100.00;100663.38;5076521;27;45363;-59
2021/12/06 09:21:21;;;;;;;;;26.25;23.50;;;;;8.02;100.00;100665.91;5076147;28;46192;-62
2021/12/06 09:23:47;;;;;;;;;26.00;24.25;;;;;8.06;100.00;100660.56;5076212;27;45304;-61
2021/12/06 09:26:13;;;;;;;;;26.25;23.75;;;;;8.09;100.00;100663.09;5077399;27;45452;-62
2021/12/06 09:28:39;;;;;;;;;24.00;22.00;;;;;8.10;100.00;100672.69;5079707;27;45606;-62
2021/12/06 09:31:05;;;;;;;;;25.50;22.00;;;;;8.13;100.00;100657.75;5078484;28;45374;-64
2021/12/06 09:33:33;;;;;;;;;24.25;24.25;;;;;8.13;100.00;100655.13;5078677;27;45431;-62
2021/12/06 09:35:59;;;;;;;;;25.25;22.25;;;;;8.12;100.00;100652.53;5078707;27;45389;-63
2021/12/06 09:38:32;;;;;;;;;26.50;23.25;;;;;8.15;100.00;100666.44;5078860;27;45236;-62
2021/12/06 09:40:58;;;;;;;;;22.50;20.75;;;;;8.17;100.00;100655.88;5079046;27;46456;-64
2021/12/06 09:43:24;;;;;;;;;24.25;21.75;;;;;8.26;100.00;100657.38;5079547;27;45373;-62
2021/12/06 09:45:51;;;;;;;;;26.50;24.25;;;;;8.34;100.00;100668.50;5079830;27;45362;-64
2021/12/06 09:48:19;;;;;;;;;29.50;26.50;;;;;8.35;100.00;100654.50;5079538;27;45329;-64
2021/12/06 09:50:52;;;;;;;;;25.50;20.75;;;;;8.38;100.00;100656.16;5078975;27;46216;-62
2021/12/06 09:53:21;;;;;;;;;19.25;18.50;;;;;8.40;100.00;100659.59;5078838;27;45409;-63
2021/12/06 09:55:50;;;;;;;;;20.50;19.50;;;;;8.41;100.00;100659.56;5080011;27;45306;-66
2021/12/06 09:58:16;;;;;;;;;21.50;18.00;;;;;8.39;100.00;100664.00;5081057;27;45212;-70
2021/12/06 10:00:46;;;;;;;;;17.00;14.00;;;;;8.33;100.00;100656.31;5080852;27;45384;-61
2021/12/06 10:03:15;;;;;;;;;17.50;16.25;;;;;8.21;100.00;100668.00;5079657;27;45447;-64
2021/12/06 10:05:41;;;;;;;;;22.00;22.00;;;;;8.12;100.00;100655.16;5079142;27;45412;-63
2021/12/06 10:08:07;;;;;;;;;28.75;26.00;;;;;8.05;100.00;100654.50;5076781;28;45601;-61
2021/12/06 10:10:33;;;;;;;;;22.75;21.00;;;;;7.98;100.00;100648.56;5077617;27;46811;-63
2021/12/06 10:12:58;;;;;;;;;26.00;23.00;;;;;8.07;100.00;100662.28;5078264;28;45300;-63
2021/12/06 10:15:27;;;;;;;;;24.00;21.00;;;;;8.06;100.00;100657.97;5078837;27;45292;-63
2021/12/06 10:17:56;;;;;;;;;21.75;17.50;;;;;7.99;100.00;100657.28;5078738;27;45518;-58
2021/12/06 10:20:23;;;;;;;;;24.75;21.75;;;;;7.96;100.00;100645.13;5078007;27;45412;-61
2021/12/06 10:22:50;;;;;;;;;20.25;17.00;;;;;8.02;100.00;100633.63;5081571;27;45251;-59
2021/12/06 10:25:16;;;;;;;;;19.75;17.00;;;;;8.08;100.00;100622.09;5082432;27;45347;-65
2021/12/06 10:27:57;;;;;;;;;19.00;17.50;;;;;8.14;100.00;100621.91;5078339;27;45613;-62
2021/12/06 10:30:25;;;;;;;;;25.75;21.25;;;;;8.19;100.00;100620.00;5078568;27;47101;-61
2021/12/06 10:33:07;;;;;;;;;19.75;16.00;;;;;8.17;100.00;100622.69;5079583;27;45491;-61
2021/12/06 10:35:34;;;;;;;;;21.50;17.25;;;;;8.12;100.00;100618.47;5081614;27;45270;-59
2021/12/06 10:37:59;;;;;;;;;19.00;13.75;;;;;8.07;100.00;100602.91;5081334;27;45480;-63
2021/12/06 10:40:31;;;;;;;;;19.25;16.25;;;;;8.08;100.00;100601.13;5079011;27;46235;-64
2021/12/06 10:43:00;;;;;;;;;20.25;12.00;;;;;8.06;100.00;100581.97;5077653;27;45310;-63
2021/12/06 10:45:32;;;;;;;;;20.50;18.00;;;;;8.07;100.00;100591.56;5078113;28;45452;-60
2021/12/06 10:48:07;;;;;;;;;15.50;13.75;;;;;8.04;100.00;100593.38;5078276;27;45399;-62
2021/12/06 10:50:34;;;;;;;;;18.50;13.50;;;;;8.06;100.00;100587.22;5076792;28;45778;-62
2021/12/06 10:53:01;;;;;;;;;16.75;15.00;;;;;8.08;100.00;100580.19;5076771;27;45505;-63
2021/12/06 10:55:30;;;;;;;;;17.25;15.00;;;;;8.14;100.00;100570.38;5075517;27;45361;-58
2021/12/06 10:58:01;;;;;;;;;19.00;17.50;;;;;8.27;100.00;100583.94;5077280;28;45353;-62
2021/12/06 11:00:42;;;;;;;;;27.00;23.00;;;;;8.26;100.00;100574.38;5076462;27;47352;-59
2021/12/06 11:03:30;;;;;;;;;25.75;19.75;;;;;8.27;100.00;100570.00;5076634;27;45492;-64
2021/12/06 11:06:13;;;;;;;;;20.75;15.75;;;;;8.31;100.00;100561.97;5077060;27;45353;-61
2021/12/06 11:08:40;;;;;;;;;24.50;18.00;;;;;8.43;100.00;100570.38;5076399;27;45349;-68
2021/12/06 11:11:14;;;;;;;;;22.50;20.25;;;;;8.58;100.00;100563.81;5076359;27;45397;-61
2021/12/06 11:13:47;;;;;;;;;19.50;19.50;;;;;8.67;100.00;100555.66;5076692;27;45313;-59
2021/12/06 11:16:13;;;;;;;;;18.00;15.25;;;;;8.80;100.00;100555.25;5076492;27;45168;-62
2021/12/06 11:19:08;;;;;;;;;25.00;23.00;;;;;8.80;100.00;100556.13;5076508;27;45229;-61
2021/12/06 11:21:49;;;;;;;;;18.75;15.50;;;;;8.81;100.00;100556.97;5074802;28;45381;-62
2021/12/06 11:24:24;;;;;;;;;13.75;8.00;;;;;8.80;100.00;100555.25;5076124;27;45335;-63
2021/12/06 11:27:00;;;;;;;;;17.25;13.75;;;;;8.76;100.00;100568.47;5077588;27;45358;-65
2021/12/06 11:29:32;;;;;;;;;15.50;12.75;;;;;8.81;100.00;100559.59;5077689;27;45478;-65
2021/12/06 11:32:08;;;;;;;;;22.00;18.50;;;;;8.94;100.00;100567.91;5077017;27;47091;-64